sensor_id;sensor_type;location;lat;lon;timestamp;P1;durP1;ratioP1;P2;durP2;ratioP2
5117;SDS011;2578;51.622;7.046;2023-06-14T00:02:05;22.37;;;20.47;;
5117;SDS011;2578;51.622;7.046;2023-06-14T00:04:33;21.60;;;19.90;;
5117;SDS011;2578;51.622;7.046;2023-06-14T00:06:59;23.93;;;22.03;;
5117;SDS011;2578;51.622;7.046;2023-06-14T00:09:25;21.83;;;20.03;;
5117;SDS011;2578;51.622;7.046;2023-06-14T00:11:51;21.30;;;19.60;;
5117;SDS011;2578;51.622;7.046;2023-06-14T00:14:16;21.67;;;19.97;;
5117;SDS011;2578;51.622;7.046;2023-06-14T00:16:42;21.40;;;19.70;;
5117;SDS011;2578;51.622;7.046;2023-06-14T00:19:08;21.00;;;19.30;;
5117;SDS011;2578;51.622;7.046;2023-06-14T00:21:35;21.87;;;20.17;;
5117;SDS011;2578;51.622;7.046;2023-06-14T00:24:03;21.20;;;19.50;;
5117;SDS011;2578;51.622;7.046;2023-06-14T00:26:29;21.00;;;19.30;;
5117;SDS011;2578;51.622;7.046;2023-06-14T00:28:55;21.73;;;19.93;;
5117;SDS011;2578;51.622;7.046;2023-06-14T00:31:21;21.30;;;19.60;;
5117;SDS011;2578;51.622;7.046;2023-06-14T00:33:48;21.33;;;19.63;;
5117;SDS011;2578;51.622;7.046;2023-06-14T00:36:14;21.20;;;19.50;;
5117;SDS011;2578;51.622;7.046;2023-06-14T00:38:39;21.80;;;20.10;;
5117;SDS011;2578;51.622;7.046;2023-06-14T00:41:07;21.20;;;19.50;;
5117;SDS011;2578;51.622;7.046;2023-06-14T00:43:32;21.30;;;19.60;;
5117;SDS011;2578;51.622;7.046;2023-06-14T00:45:59;21.60;;;19.80;;
5117;SDS011;2578;51.622;7.046;2023-06-14T00:48:25;21.87;;;20.07;;
5117;SDS011;2578;51.622;7.046;2023-06-14T00:50:51;21.67;;;19.90;;
5117;SDS011;2578;51.622;7.046;2023-06-14T00:53:17;21.10;;;19.40;;
5117;SDS011;2578;51.622;7.046;2023-06-14T00:55:45;21.87;;;20.07;;
5117;SDS011;2578;51.622;7.046;2023-06-14T00:58:11;21.30;;;19.60;;
5117;SDS011;2578;51.622;7.046;2023-06-14T01:00:38;21.10;;;19.40;;
5117;SDS011;2578;51.622;7.046;2023-06-14T01:03:03;21.30;;;19.60;;
5117;SDS011;2578;51.622;7.046;2023-06-14T01:05:29;21.00;;;19.30;;
5117;SDS011;2578;51.622;7.046;2023-06-14T01:10:53;21.03;;;19.33;;
5117;SDS011;2578;51.622;7.046;2023-06-14T01:13:34;21.03;;;19.33;;
5117;SDS011;2578;51.622;7.046;2023-06-14T01:16:02;21.27;;;19.57;;
5117;SDS011;2578;51.622;7.046;2023-06-14T01:18:30;20.80;;;19.10;;
5117;SDS011;2578;51.622;7.046;2023-06-14T01:20:57;20.63;;;19.00;;
5117;SDS011;2578;51.622;7.046;2023-06-14T01:23:23;20.67;;;19.00;;
5117;SDS011;2578;51.622;7.046;2023-06-14T01:25:49;20.70;;;19.00;;
5117;SDS011;2578;51.622;7.046;2023-06-14T01:28:18;20.80;;;19.10;;
5117;SDS011;2578;51.622;7.046;2023-06-14T01:30:46;20.37;;;18.77;;
5117;SDS011;2578;51.622;7.046;2023-06-14T01:33:17;20.80;;;19.10;;
5117;SDS011;2578;51.622;7.046;2023-06-14T01:35:48;20.40;;;18.80;;
5117;SDS011;2578;51.622;7.046;2023-06-14T01:38:20;20.60;;;19.00;;
5117;SDS011;2578;51.622;7.046;2023-06-14T01:40:48;20.20;;;18.60;;
5117;SDS011;2578;51.622;7.046;2023-06-14T01:43:16;20.13;;;18.53;;
5117;SDS011;2578;51.622;7.046;2023-06-14T01:45:44;20.00;;;18.40;;
5117;SDS011;2578;51.622;7.046;2023-06-14T01:48:13;19.93;;;18.33;;
5117;SDS011;2578;51.622;7.046;2023-06-14T01:50:40;19.80;;;18.20;;
5117;SDS011;2578;51.622;7.046;2023-06-14T01:53:09;20.00;;;18.40;;
5117;SDS011;2578;51.622;7.046;2023-06-14T01:55:35;19.30;;;17.80;;
5117;SDS011;2578;51.622;7.046;2023-06-14T01:58:02;19.30;;;17.80;;
5117;SDS011;2578;51.622;7.046;2023-06-14T02:00:30;19.50;;;18.00;;
5117;SDS011;2578;51.622;7.046;2023-06-14T02:02:56;19.50;;;18.00;;
5117;SDS011;2578;51.622;7.046;2023-06-14T02:05:22;19.20;;;17.70;;
5117;SDS011;2578;51.622;7.046;2023-06-14T02:07:47;19.40;;;17.90;;
5117;SDS011;2578;51.622;7.046;2023-06-14T02:10:13;19.03;;;17.53;;
5117;SDS011;2578;51.622;7.046;2023-06-14T02:12:40;19.10;;;17.60;;
5117;SDS011;2578;51.622;7.046;2023-06-14T02:15:06;19.40;;;17.90;;
5117;SDS011;2578;51.622;7.046;2023-06-14T02:17:33;19.43;;;17.93;;
5117;SDS011;2578;51.622;7.046;2023-06-14T02:19:59;19.60;;;18.10;;
5117;SDS011;2578;51.622;7.046;2023-06-14T02:22:25;19.20;;;17.70;;
5117;SDS011;2578;51.622;7.046;2023-06-14T02:24:51;19.77;;;18.17;;
5117;SDS011;2578;51.622;7.046;2023-06-14T02:27:17;19.33;;;17.83;;
5117;SDS011;2578;51.622;7.046;2023-06-14T02:29:43;19.50;;;18.00;;
5117;SDS011;2578;51.622;7.046;2023-06-14T02:32:09;19.10;;;17.70;;
5117;SDS011;2578;51.622;7.046;2023-06-14T02:34:34;19.10;;;17.60;;
5117;SDS011;2578;51.622;7.046;2023-06-14T02:37:01;19.23;;;17.73;;
5117;SDS011;2578;51.622;7.046;2023-06-14T02:39:28;19.30;;;17.80;;
5117;SDS011;2578;51.622;7.046;2023-06-14T02:41:54;19.30;;;17.80;;
5117;SDS011;2578;51.622;7.046;2023-06-14T02:44:23;19.30;;;17.80;;
5117;SDS011;2578;51.622;7.046;2023-06-14T02:46:50;18.80;;;17.40;;
5117;SDS011;2578;51.622;7.046;2023-06-14T02:49:16;18.60;;;17.20;;
5117;SDS011;2578;51.622;7.046;2023-06-14T02:51:41;18.60;;;17.20;;
5117;SDS011;2578;51.622;7.046;2023-06-14T02:54:07;18.50;;;17.10;;
5117;SDS011;2578;51.622;7.046;2023-06-14T02:56:33;18.70;;;17.30;;
5117;SDS011;2578;51.622;7.046;2023-06-14T02:58:58;18.30;;;16.90;;
5117;SDS011;2578;51.622;7.046;2023-06-14T03:01:25;18.90;;;17.50;;
5117;SDS011;2578;51.622;7.046;2023-06-14T03:04:00;18.43;;;17.03;;
5117;SDS011;2578;51.622;7.046;2023-06-14T03:06:27;18.50;;;17.10;;
5117;SDS011;2578;51.622;7.046;2023-06-14T03:08:55;18.00;;;16.60;;
5117;SDS011;2578;51.622;7.046;2023-06-14T03:11:29;19.00;;;17.60;;
5117;SDS011;2578;51.622;7.046;2023-06-14T03:13:55;18.80;;;17.40;;
5117;SDS011;2578;51.622;7.046;2023-06-14T03:16:21;18.10;;;16.70;;
5117;SDS011;2578;51.622;7.046;2023-06-14T03:18:49;18.20;;;16.80;;
5117;SDS011;2578;51.622;7.046;2023-06-14T03:21:16;18.40;;;17.00;;
5117;SDS011;2578;51.622;7.046;2023-06-14T03:23:42;18.40;;;17.00;;
5117;SDS011;2578;51.622;7.046;2023-06-14T03:26:09;18.00;;;16.60;;
5117;SDS011;2578;51.622;7.046;2023-06-14T03:28:37;18.13;;;16.83;;
5117;SDS011;2578;51.622;7.046;2023-06-14T03:31:03;17.80;;;16.50;;
5117;SDS011;2578;51.622;7.046;2023-06-14T03:33:29;17.40;;;16.10;;
5117;SDS011;2578;51.622;7.046;2023-06-14T03:35:54;17.43;;;16.13;;
5117;SDS011;2578;51.622;7.046;2023-06-14T03:38:21;20.70;;;19.10;;
5117;SDS011;2578;51.622;7.046;2023-06-14T03:40:47;17.40;;;16.10;;
5117;SDS011;2578;51.622;7.046;2023-06-14T03:43:12;17.50;;;16.20;;
5117;SDS011;2578;51.622;7.046;2023-06-14T03:45:38;17.50;;;16.20;;
5117;SDS011;2578;51.622;7.046;2023-06-14T03:48:03;17.57;;;16.27;;
5117;SDS011;2578;51.622;7.046;2023-06-14T03:50:31;16.90;;;15.70;;
5117;SDS011;2578;51.622;7.046;2023-06-14T03:52:57;17.00;;;15.80;;
5117;SDS011;2578;51.622;7.046;2023-06-14T03:55:23;17.27;;;16.00;;
5117;SDS011;2578;51.622;7.046;2023-06-14T03:57:50;17.37;;;16.07;;
5117;SDS011;2578;51.622;7.046;2023-06-14T04:00:16;17.60;;;16.30;;
5117;SDS011;2578;51.622;7.046;2023-06-14T04:02:43;17.70;;;16.40;;
5117;SDS011;2578;51.622;7.046;2023-06-14T04:05:11;17.40;;;16.10;;
5117;SDS011;2578;51.622;7.046;2023-06-14T04:07:37;16.60;;;15.40;;
5117;SDS011;2578;51.622;7.046;2023-06-14T04:10:06;17.33;;;16.03;;
5117;SDS011;2578;51.622;7.046;2023-06-14T04:12:32;17.07;;;15.77;;
5117;SDS011;2578;51.622;7.046;2023-06-14T04:14:58;17.20;;;15.90;;
5117;SDS011;2578;51.622;7.046;2023-06-14T04:17:25;16.90;;;15.60;;
5117;SDS011;2578;51.622;7.046;2023-06-14T04:19:51;17.30;;;16.00;;
5117;SDS011;2578;51.622;7.046;2023-06-14T04:22:17;16.70;;;15.50;;
5117;SDS011;2578;51.622;7.046;2023-06-14T04:24:43;17.40;;;16.10;;
5117;SDS011;2578;51.622;7.046;2023-06-14T04:27:09;17.60;;;16.30;;
5117;SDS011;2578;51.622;7.046;2023-06-14T04:29:35;18.00;;;16.70;;
5117;SDS011;2578;51.622;7.046;2023-06-14T04:32:01;17.80;;;16.50;;
5117;SDS011;2578;51.622;7.046;2023-06-14T04:34:27;18.20;;;16.90;;
5117;SDS011;2578;51.622;7.046;2023-06-14T04:36:57;18.10;;;16.80;;
5117;SDS011;2578;51.622;7.046;2023-06-14T04:39:24;18.00;;;16.70;;
5117;SDS011;2578;51.622;7.046;2023-06-14T04:41:51;18.20;;;16.90;;
5117;SDS011;2578;51.622;7.046;2023-06-14T04:44:17;18.00;;;16.70;;
5117;SDS011;2578;51.622;7.046;2023-06-14T04:46:44;18.30;;;17.00;;
5117;SDS011;2578;51.622;7.046;2023-06-14T04:49:14;18.90;;;17.50;;
5117;SDS011;2578;51.622;7.046;2023-06-14T04:51:43;18.93;;;17.53;;
5117;SDS011;2578;51.622;7.046;2023-06-14T04:54:10;19.73;;;18.27;;
5117;SDS011;2578;51.622;7.046;2023-06-14T04:56:39;20.37;;;18.87;;
5117;SDS011;2578;51.622;7.046;2023-06-14T04:59:05;21.83;;;20.20;;
5117;SDS011;2578;51.622;7.046;2023-06-14T05:01:31;21.27;;;19.67;;
5117;SDS011;2578;51.622;7.046;2023-06-14T05:03:58;22.00;;;20.23;;
5117;SDS011;2578;51.622;7.046;2023-06-14T05:06:25;22.07;;;20.20;;
5117;SDS011;2578;51.622;7.046;2023-06-14T05:08:52;21.70;;;20.10;;
5117;SDS011;2578;51.622;7.046;2023-06-14T05:11:18;22.27;;;20.47;;
5117;SDS011;2578;51.622;7.046;2023-06-14T05:13:44;22.10;;;20.40;;
5117;SDS011;2578;51.622;7.046;2023-06-14T05:16:10;22.60;;;20.80;;
5117;SDS011;2578;51.622;7.046;2023-06-14T05:18:37;23.00;;;21.20;;
5117;SDS011;2578;51.622;7.046;2023-06-14T05:21:03;22.70;;;21.00;;
5117;SDS011;2578;51.622;7.046;2023-06-14T05:23:32;23.63;;;21.80;;
5117;SDS011;2578;51.622;7.046;2023-06-14T05:25:58;23.30;;;21.50;;
5117;SDS011;2578;51.622;7.046;2023-06-14T05:28:23;22.97;;;21.17;;
5117;SDS011;2578;51.622;7.046;2023-06-14T05:30:49;22.27;;;20.57;;
5117;SDS011;2578;51.622;7.046;2023-06-14T05:33:16;23.40;;;21.50;;
5117;SDS011;2578;51.622;7.046;2023-06-14T05:35:42;23.10;;;21.30;;
5117;SDS011;2578;51.622;7.046;2023-06-14T05:38:07;24.30;;;22.50;;
5117;SDS011;2578;51.622;7.046;2023-06-14T05:40:33;23.20;;;21.50;;
5117;SDS011;2578;51.622;7.046;2023-06-14T05:42:59;23.77;;;21.97;;
5117;SDS011;2578;51.622;7.046;2023-06-14T05:45:29;23.50;;;21.70;;
5117;SDS011;2578;51.622;7.046;2023-06-14T05:47:55;23.20;;;21.40;;
5117;SDS011;2578;51.622;7.046;2023-06-14T05:50:20;22.83;;;21.07;;
5117;SDS011;2578;51.622;7.046;2023-06-14T05:52:46;23.20;;;21.40;;
5117;SDS011;2578;51.622;7.046;2023-06-14T05:55:12;22.80;;;21.10;;
5117;SDS011;2578;51.622;7.046;2023-06-14T05:57:38;23.73;;;21.93;;
5117;SDS011;2578;51.622;7.046;2023-06-14T06:00:04;23.43;;;21.70;;
5117;SDS011;2578;51.622;7.046;2023-06-14T06:02:36;24.43;;;22.63;;
5117;SDS011;2578;51.622;7.046;2023-06-14T06:05:02;23.90;;;22.10;;
5117;SDS011;2578;51.622;7.046;2023-06-14T06:07:28;24.30;;;22.40;;
5117;SDS011;2578;51.622;7.046;2023-06-14T06:09:53;23.87;;;22.03;;
5117;SDS011;2578;51.622;7.046;2023-06-14T06:12:19;24.83;;;22.63;;
5117;SDS011;2578;51.622;7.046;2023-06-14T06:14:44;23.83;;;21.73;;
5117;SDS011;2578;51.622;7.046;2023-06-14T06:17:10;23.60;;;21.60;;
5117;SDS011;2578;51.622;7.046;2023-06-14T06:19:36;23.20;;;21.30;;
5117;SDS011;2578;51.622;7.046;2023-06-14T06:22:01;24.40;;;22.40;;
5117;SDS011;2578;51.622;7.046;2023-06-14T06:24:29;24.07;;;22.07;;
5117;SDS011;2578;51.622;7.046;2023-06-14T06:26:55;23.67;;;21.77;;
5117;SDS011;2578;51.622;7.046;2023-06-14T06:29:20;23.57;;;21.67;;
5117;SDS011;2578;51.622;7.046;2023-06-14T06:31:46;24.37;;;22.37;;
5117;SDS011;2578;51.622;7.046;2023-06-14T06:34:12;23.70;;;21.80;;
5117;SDS011;2578;51.622;7.046;2023-06-14T06:36:37;24.07;;;22.17;;
5117;SDS011;2578;51.622;7.046;2023-06-14T06:39:03;23.60;;;21.70;;
5117;SDS011;2578;51.622;7.046;2023-06-14T06:41:34;24.20;;;22.30;;
5117;SDS011;2578;51.622;7.046;2023-06-14T06:44:05;24.73;;;22.73;;
5117;SDS011;2578;51.622;7.046;2023-06-14T06:46:31;25.83;;;23.73;;
5117;SDS011;2578;51.622;7.046;2023-06-14T06:48:58;24.00;;;22.00;;
5117;SDS011;2578;51.622;7.046;2023-06-14T06:51:24;24.27;;;22.37;;
5117;SDS011;2578;51.622;7.046;2023-06-14T06:53:53;24.37;;;22.37;;
5117;SDS011;2578;51.622;7.046;2023-06-14T06:56:19;24.10;;;22.20;;
5117;SDS011;2578;51.622;7.046;2023-06-14T06:58:48;24.20;;;22.23;;
5117;SDS011;2578;51.622;7.046;2023-06-14T07:01:15;24.03;;;22.03;;
5117;SDS011;2578;51.622;7.046;2023-06-14T07:03:41;24.33;;;22.30;;
5117;SDS011;2578;51.622;7.046;2023-06-14T07:06:07;23.80;;;21.90;;
5117;SDS011;2578;51.622;7.046;2023-06-14T07:08:33;23.97;;;21.97;;
5117;SDS011;2578;51.622;7.046;2023-06-14T07:10:59;24.03;;;22.03;;
5117;SDS011;2578;51.622;7.046;2023-06-14T07:13:25;25.03;;;23.03;;
5117;SDS011;2578;51.622;7.046;2023-06-14T07:15:50;25.50;;;23.50;;
5117;SDS011;2578;51.622;7.046;2023-06-14T07:18:19;25.30;;;23.20;;
5117;SDS011;2578;51.622;7.046;2023-06-14T07:20:45;25.67;;;23.57;;
5117;SDS011;2578;51.622;7.046;2023-06-14T07:23:12;24.13;;;22.13;;
5117;SDS011;2578;51.622;7.046;2023-06-14T07:25:37;25.20;;;23.20;;
5117;SDS011;2578;51.622;7.046;2023-06-14T07:28:03;25.77;;;23.67;;
5117;SDS011;2578;51.622;7.046;2023-06-14T07:30:29;26.30;;;24.20;;
5117;SDS011;2578;51.622;7.046;2023-06-14T07:32:55;26.37;;;24.27;;
5117;SDS011;2578;51.622;7.046;2023-06-14T07:35:21;25.93;;;23.83;;
5117;SDS011;2578;51.622;7.046;2023-06-14T07:37:46;25.40;;;23.23;;
5117;SDS011;2578;51.622;7.046;2023-06-14T07:40:12;25.03;;;23.00;;
5117;SDS011;2578;51.622;7.046;2023-06-14T07:42:38;25.20;;;23.20;;
5117;SDS011;2578;51.622;7.046;2023-06-14T07:45:04;25.70;;;23.70;;
5117;SDS011;2578;51.622;7.046;2023-06-14T07:47:30;25.40;;;23.40;;
5117;SDS011;2578;51.622;7.046;2023-06-14T07:49:57;26.10;;;24.00;;
5117;SDS011;2578;51.622;7.046;2023-06-14T07:52:22;24.93;;;22.93;;
5117;SDS011;2578;51.622;7.046;2023-06-14T07:54:48;26.30;;;24.40;;
5117;SDS011;2578;51.622;7.046;2023-06-14T07:57:14;27.00;;;24.87;;
5117;SDS011;2578;51.622;7.046;2023-06-14T07:59:39;26.67;;;24.67;;
5117;SDS011;2578;51.622;7.046;2023-06-14T08:02:05;26.27;;;24.37;;
5117;SDS011;2578;51.622;7.046;2023-06-14T08:04:31;26.47;;;24.47;;
5117;SDS011;2578;51.622;7.046;2023-06-14T08:06:58;27.67;;;25.60;;
5117;SDS011;2578;51.622;7.046;2023-06-14T08:09:24;27.20;;;25.20;;
5117;SDS011;2578;51.622;7.046;2023-06-14T08:11:50;26.87;;;24.67;;
5117;SDS011;2578;51.622;7.046;2023-06-14T08:14:16;27.53;;;25.43;;
5117;SDS011;2578;51.622;7.046;2023-06-14T08:16:41;26.00;;;24.00;;
5117;SDS011;2578;51.622;7.046;2023-06-14T08:19:07;26.37;;;24.37;;
5117;SDS011;2578;51.622;7.046;2023-06-14T08:21:33;26.10;;;24.10;;
5117;SDS011;2578;51.622;7.046;2023-06-14T08:24:01;28.07;;;25.87;;
5117;SDS011;2578;51.622;7.046;2023-06-14T08:26:27;26.10;;;24.10;;
5117;SDS011;2578;51.622;7.046;2023-06-14T08:28:57;27.33;;;25.23;;
5117;SDS011;2578;51.622;7.046;2023-06-14T08:31:23;26.10;;;24.10;;
5117;SDS011;2578;51.622;7.046;2023-06-14T08:33:49;26.60;;;24.50;;
5117;SDS011;2578;51.622;7.046;2023-06-14T08:36:15;26.20;;;24.20;;
5117;SDS011;2578;51.622;7.046;2023-06-14T08:38:40;25.37;;;23.37;;
5117;SDS011;2578;51.622;7.046;2023-06-14T08:41:06;26.40;;;24.30;;
5117;SDS011;2578;51.622;7.046;2023-06-14T08:43:35;27.93;;;25.83;;
5117;SDS011;2578;51.622;7.046;2023-06-14T08:46:02;27.13;;;25.13;;
5117;SDS011;2578;51.622;7.046;2023-06-14T08:48:29;27.70;;;25.60;;
5117;SDS011;2578;51.622;7.046;2023-06-14T08:51:01;27.90;;;25.80;;
5117;SDS011;2578;51.622;7.046;2023-06-14T08:53:30;28.00;;;25.90;;
5117;SDS011;2578;51.622;7.046;2023-06-14T08:55:59;27.57;;;25.47;;
5117;SDS011;2578;51.622;7.046;2023-06-14T08:58:27;28.73;;;26.53;;
5117;SDS011;2578;51.622;7.046;2023-06-14T09:00:56;27.10;;;25.00;;
5117;SDS011;2578;51.622;7.046;2023-06-14T09:03:23;26.80;;;24.70;;
5117;SDS011;2578;51.622;7.046;2023-06-14T09:05:55;26.40;;;24.30;;
5117;SDS011;2578;51.622;7.046;2023-06-14T09:08:24;26.63;;;24.53;;
5117;SDS011;2578;51.622;7.046;2023-06-14T09:10:50;27.30;;;25.10;;
5117;SDS011;2578;51.622;7.046;2023-06-14T09:13:16;27.63;;;25.33;;
5117;SDS011;2578;51.622;7.046;2023-06-14T09:15:42;29.00;;;26.13;;
5117;SDS011;2578;51.622;7.046;2023-06-14T09:18:08;26.40;;;24.30;;
5117;SDS011;2578;51.622;7.046;2023-06-14T09:20:35;27.10;;;24.90;;
5117;SDS011;2578;51.622;7.046;2023-06-14T09:23:02;27.20;;;25.10;;
5117;SDS011;2578;51.622;7.046;2023-06-14T09:25:30;26.90;;;24.80;;
5117;SDS011;2578;51.622;7.046;2023-06-14T09:27:55;26.70;;;24.60;;
5117;SDS011;2578;51.622;7.046;2023-06-14T09:30:21;25.90;;;23.90;;
5117;SDS011;2578;51.622;7.046;2023-06-14T09:32:47;26.17;;;24.17;;
5117;SDS011;2578;51.622;7.046;2023-06-14T09:35:12;26.73;;;24.67;;
5117;SDS011;2578;51.622;7.046;2023-06-14T09:37:43;26.10;;;24.00;;
5117;SDS011;2578;51.622;7.046;2023-06-14T09:40:09;26.00;;;23.90;;
5117;SDS011;2578;51.622;7.046;2023-06-14T09:42:35;26.00;;;23.90;;
5117;SDS011;2578;51.622;7.046;2023-06-14T09:45:04;26.20;;;24.10;;
5117;SDS011;2578;51.622;7.046;2023-06-14T09:47:30;25.50;;;23.50;;
5117;SDS011;2578;51.622;7.046;2023-06-14T09:49:56;26.53;;;24.43;;
5117;SDS011;2578;51.622;7.046;2023-06-14T09:52:22;26.30;;;24.20;;
5117;SDS011;2578;51.622;7.046;2023-06-14T09:54:49;27.50;;;25.40;;
5117;SDS011;2578;51.622;7.046;2023-06-14T09:57:15;27.33;;;25.23;;
5117;SDS011;2578;51.622;7.046;2023-06-14T09:59:43;27.60;;;25.50;;
5117;SDS011;2578;51.622;7.046;2023-06-14T10:02:11;27.13;;;25.03;;
5117;SDS011;2578;51.622;7.046;2023-06-14T10:04:53;26.80;;;24.70;;
5117;SDS011;2578;51.622;7.046;2023-06-14T10:07:42;26.90;;;24.80;;
5117;SDS011;2578;51.622;7.046;2023-06-14T10:10:09;26.87;;;24.77;;
5117;SDS011;2578;51.622;7.046;2023-06-14T10:12:35;27.50;;;25.20;;
5117;SDS011;2578;51.622;7.046;2023-06-14T10:15:01;26.50;;;24.40;;
5117;SDS011;2578;51.622;7.046;2023-06-14T10:22:51;25.27;;;23.37;;
5117;SDS011;2578;51.622;7.046;2023-06-14T10:25:28;25.63;;;23.63;;
5117;SDS011;2578;51.622;7.046;2023-06-14T10:30:40;25.77;;;23.87;;
5117;SDS011;2578;51.622;7.046;2023-06-14T10:33:25;25.00;;;23.20;;
5117;SDS011;2578;51.622;7.046;2023-06-14T10:36:06;26.00;;;23.97;;
5117;SDS011;2578;51.622;7.046;2023-06-14T10:38:36;26.10;;;24.20;;
5117;SDS011;2578;51.622;7.046;2023-06-14T10:41:03;26.30;;;24.40;;
5117;SDS011;2578;51.622;7.046;2023-06-14T10:43:29;26.23;;;24.23;;
5117;SDS011;2578;51.622;7.046;2023-06-14T10:46:12;25.90;;;24.00;;
5117;SDS011;2578;51.622;7.046;2023-06-14T10:48:45;26.37;;;24.47;;
5117;SDS011;2578;51.622;7.046;2023-06-14T10:51:17;25.03;;;23.13;;
5117;SDS011;2578;51.622;7.046;2023-06-14T10:53:50;25.53;;;23.63;;
5117;SDS011;2578;51.622;7.046;2023-06-14T10:56:28;25.33;;;23.43;;
5117;SDS011;2578;51.622;7.046;2023-06-14T10:58:56;25.73;;;23.80;;
5117;SDS011;2578;51.622;7.046;2023-06-14T11:01:36;26.00;;;24.10;;
5117;SDS011;2578;51.622;7.046;2023-06-14T11:04:06;26.20;;;24.20;;
5117;SDS011;2578;51.622;7.046;2023-06-14T11:06:44;25.60;;;23.60;;
5117;SDS011;2578;51.622;7.046;2023-06-14T11:12:19;25.30;;;23.40;;
5117;SDS011;2578;51.622;7.046;2023-06-14T11:14:46;26.30;;;24.40;;
5117;SDS011;2578;51.622;7.046;2023-06-14T11:17:12;26.20;;;24.20;;
5117;SDS011;2578;51.622;7.046;2023-06-14T11:19:38;26.40;;;24.40;;
5117;SDS011;2578;51.622;7.046;2023-06-14T11:22:04;25.60;;;23.70;;
5117;SDS011;2578;51.622;7.046;2023-06-14T11:24:31;26.73;;;24.73;;
5117;SDS011;2578;51.622;7.046;2023-06-14T11:26:57;25.60;;;23.70;;
5117;SDS011;2578;51.622;7.046;2023-06-14T11:29:23;25.77;;;23.87;;
5117;SDS011;2578;51.622;7.046;2023-06-14T11:31:49;26.30;;;24.40;;
5117;SDS011;2578;51.622;7.046;2023-06-14T11:34:16;25.90;;;24.00;;
5117;SDS011;2578;51.622;7.046;2023-06-14T11:36:42;26.43;;;24.43;;
5117;SDS011;2578;51.622;7.046;2023-06-14T11:39:08;24.90;;;23.00;;
5117;SDS011;2578;51.622;7.046;2023-06-14T11:41:41;24.50;;;22.70;;
5117;SDS011;2578;51.622;7.046;2023-06-14T11:44:08;25.30;;;23.40;;
5117;SDS011;2578;51.622;7.046;2023-06-14T11:46:34;25.33;;;23.47;;
5117;SDS011;2578;51.622;7.046;2023-06-14T11:49:03;26.87;;;24.97;;
5117;SDS011;2578;51.622;7.046;2023-06-14T11:51:32;26.10;;;24.00;;
5117;SDS011;2578;51.622;7.046;2023-06-14T11:53:58;26.30;;;24.20;;
5117;SDS011;2578;51.622;7.046;2023-06-14T11:56:25;25.90;;;24.00;;
5117;SDS011;2578;51.622;7.046;2023-06-14T11:58:52;27.17;;;24.87;;
5117;SDS011;2578;51.622;7.046;2023-06-14T12:01:21;26.47;;;24.47;;
5117;SDS011;2578;51.622;7.046;2023-06-14T12:03:48;26.60;;;24.70;;
5117;SDS011;2578;51.622;7.046;2023-06-14T12:06:25;26.80;;;24.90;;
5117;SDS011;2578;51.622;7.046;2023-06-14T12:08:58;26.60;;;24.60;;
5117;SDS011;2578;51.622;7.046;2023-06-14T12:11:24;26.27;;;24.37;;
5117;SDS011;2578;51.622;7.046;2023-06-14T12:13:53;26.30;;;24.37;;
5117;SDS011;2578;51.622;7.046;2023-06-14T12:16:18;25.90;;;24.00;;
5117;SDS011;2578;51.622;7.046;2023-06-14T12:18:45;26.00;;;24.10;;
5117;SDS011;2578;51.622;7.046;2023-06-14T12:21:11;25.70;;;23.80;;
5117;SDS011;2578;51.622;7.046;2023-06-14T12:23:42;26.00;;;24.10;;
5117;SDS011;2578;51.622;7.046;2023-06-14T12:26:15;27.60;;;25.70;;
5117;SDS011;2578;51.622;7.046;2023-06-14T12:28:42;26.63;;;24.83;;
5117;SDS011;2578;51.622;7.046;2023-06-14T12:31:10;25.13;;;23.43;;
5117;SDS011;2578;51.622;7.046;2023-06-14T12:33:37;25.77;;;23.87;;
5117;SDS011;2578;51.622;7.046;2023-06-14T12:36:03;24.97;;;23.07;;
5117;SDS011;2578;51.622;7.046;2023-06-14T12:38:30;26.10;;;24.10;;
5117;SDS011;2578;51.622;7.046;2023-06-14T12:40:57;26.73;;;24.50;;
5117;SDS011;2578;51.622;7.046;2023-06-14T12:43:22;26.50;;;24.50;;
5117;SDS011;2578;51.622;7.046;2023-06-14T12:45:48;26.83;;;24.73;;
5117;SDS011;2578;51.622;7.046;2023-06-14T12:48:14;27.87;;;24.90;;
5117;SDS011;2578;51.622;7.046;2023-06-14T12:50:40;26.80;;;24.80;;
5117;SDS011;2578;51.622;7.046;2023-06-14T12:53:06;27.30;;;25.30;;
5117;SDS011;2578;51.622;7.046;2023-06-14T12:55:32;27.67;;;25.57;;
5117;SDS011;2578;51.622;7.046;2023-06-14T12:57:58;27.63;;;25.30;;
5117;SDS011;2578;51.622;7.046;2023-06-14T13:00:24;26.63;;;24.63;;
5117;SDS011;2578;51.622;7.046;2023-06-14T13:02:54;27.23;;;25.13;;
5117;SDS011;2578;51.622;7.046;2023-06-14T13:05:20;26.80;;;24.70;;
5117;SDS011;2578;51.622;7.046;2023-06-14T13:07:46;26.70;;;24.70;;
5117;SDS011;2578;51.622;7.046;2023-06-14T13:10:11;27.47;;;25.37;;
5117;SDS011;2578;51.622;7.046;2023-06-14T13:12:37;27.33;;;25.33;;
5117;SDS011;2578;51.622;7.046;2023-06-14T13:15:03;28.10;;;26.00;;
5117;SDS011;2578;51.622;7.046;2023-06-14T13:17:29;26.80;;;24.80;;
5117;SDS011;2578;51.622;7.046;2023-06-14T13:19:54;27.70;;;25.50;;
5117;SDS011;2578;51.622;7.046;2023-06-14T13:22:20;27.83;;;25.73;;
5117;SDS011;2578;51.622;7.046;2023-06-14T13:24:46;26.93;;;24.93;;
5117;SDS011;2578;51.622;7.046;2023-06-14T13:27:12;27.30;;;25.30;;
5117;SDS011;2578;51.622;7.046;2023-06-14T13:29:39;27.60;;;25.50;;
5117;SDS011;2578;51.622;7.046;2023-06-14T13:32:05;27.90;;;25.80;;
5117;SDS011;2578;51.622;7.046;2023-06-14T13:34:31;27.20;;;25.10;;
5117;SDS011;2578;51.622;7.046;2023-06-14T13:36:56;27.50;;;25.50;;
5117;SDS011;2578;51.622;7.046;2023-06-14T13:39:24;27.40;;;25.40;;
5117;SDS011;2578;51.622;7.046;2023-06-14T13:41:50;26.87;;;24.87;;
5117;SDS011;2578;51.622;7.046;2023-06-14T13:44:15;28.00;;;26.00;;
5117;SDS011;2578;51.622;7.046;2023-06-14T13:46:43;28.00;;;26.00;;
5117;SDS011;2578;51.622;7.046;2023-06-14T13:49:09;30.83;;;28.63;;
5117;SDS011;2578;51.622;7.046;2023-06-14T13:51:35;28.70;;;26.60;;
5117;SDS011;2578;51.622;7.046;2023-06-14T13:54:01;27.10;;;25.10;;
5117;SDS011;2578;51.622;7.046;2023-06-14T13:56:27;27.07;;;25.07;;
5117;SDS011;2578;51.622;7.046;2023-06-14T13:58:52;27.20;;;25.20;;
5117;SDS011;2578;51.622;7.046;2023-06-14T14:01:18;26.80;;;24.80;;
5117;SDS011;2578;51.622;7.046;2023-06-14T14:03:47;27.20;;;25.20;;
5117;SDS011;2578;51.622;7.046;2023-06-14T14:06:17;27.80;;;25.70;;
5117;SDS011;2578;51.622;7.046;2023-06-14T14:08:43;27.60;;;25.50;;
5117;SDS011;2578;51.622;7.046;2023-06-14T14:11:09;27.50;;;25.40;;
5117;SDS011;2578;51.622;7.046;2023-06-14T14:13:35;28.20;;;26.10;;
5117;SDS011;2578;51.622;7.046;2023-06-14T14:16:01;28.70;;;26.60;;
5117;SDS011;2578;51.622;7.046;2023-06-14T14:18:28;27.10;;;25.10;;
5117;SDS011;2578;51.622;7.046;2023-06-14T14:20:54;27.80;;;25.70;;
5117;SDS011;2578;51.622;7.046;2023-06-14T14:23:20;28.30;;;26.20;;
5117;SDS011;2578;51.622;7.046;2023-06-14T14:25:46;28.47;;;26.37;;
5117;SDS011;2578;51.622;7.046;2023-06-14T14:28:11;27.17;;;25.17;;
5117;SDS011;2578;51.622;7.046;2023-06-14T14:30:38;28.50;;;25.90;;
5117;SDS011;2578;51.622;7.046;2023-06-14T14:33:05;27.40;;;25.40;;
5117;SDS011;2578;51.622;7.046;2023-06-14T14:35:31;26.47;;;24.47;;
5117;SDS011;2578;51.622;7.046;2023-06-14T14:37:57;27.27;;;25.20;;
5117;SDS011;2578;51.622;7.046;2023-06-14T14:40:22;28.00;;;25.80;;
5117;SDS011;2578;51.622;7.046;2023-06-14T14:42:48;27.53;;;25.53;;
5117;SDS011;2578;51.622;7.046;2023-06-14T14:45:14;27.93;;;25.83;;
5117;SDS011;2578;51.622;7.046;2023-06-14T14:47:39;27.10;;;25.10;;
5117;SDS011;2578;51.622;7.046;2023-06-14T14:50:05;27.90;;;25.80;;
5117;SDS011;2578;51.622;7.046;2023-06-14T14:52:34;27.43;;;25.33;;
5117;SDS011;2578;51.622;7.046;2023-06-14T14:55:00;26.80;;;24.80;;
5117;SDS011;2578;51.622;7.046;2023-06-14T14:57:26;26.70;;;24.70;;
5117;SDS011;2578;51.622;7.046;2023-06-14T14:59:51;28.40;;;26.00;;
5117;SDS011;2578;51.622;7.046;2023-06-14T15:02:17;28.43;;;25.97;;